Time;durP1;ratioP1;P1;durP2;ratioP2;P2;SDS_P1;SDS_P2;PMS_P1;PMS_P2;Temp;Humidity;BMP_temperature;BMP_pressure;BME280_temperature;BME280_humidity;BME280_pressure;Samples;Min_cycle;Max_cycle;Signal;HPM_P1;HPM_P2
2021/12/27 00:00:12;;;;;;;12.18;9.18;;;6.50;99.90;;;;;;4976727;28;20045;-70
2021/12/27 00:02:38;;;;;;;9.45;7.80;;;6.50;99.90;;;;;;4976680;28;20480;-70
2021/12/27 00:05:05;;;;;;;11.30;8.02;;;6.50;99.90;;;;;;4976082;28;20034;-71
2021/12/27 00:07:32;;;;;;;12.88;8.50;;;6.50;99.90;;;;;;4976865;28;20030;-70
2021/12/27 00:09:57;;;;;;;11.70;8.65;;;6.50;99.90;;;;;;4976109;28;20041;-70
2021/12/27 00:12:23;;;;;;;9.98;7.50;;;6.50;99.90;;;;;;4976459;28;20050;-70
2021/12/27 00:14:49;;;;;;;11.25;8.15;;;6.40;99.90;;;;;;4975640;28;20037;-70
2021/12/27 00:17:14;;;;;;;10.35;8.05;;;6.40;99.90;;;;;;4976620;28;20098;-70
2021/12/27 00:19:40;;;;;;;12.52;8.80;;;6.40;99.90;;;;;;4976602;28;20027;-70
2021/12/27 00:22:06;;;;;;;10.25;7.90;;;6.40;99.90;;;;;;4976148;28;20041;-70
2021/12/27 00:24:32;;;;;;;11.57;8.57;;;6.50;99.90;;;;;;4976012;28;20027;-70
2021/12/27 00:26:57;;;;;;;15.68;10.45;;;6.60;99.90;;;;;;4975387;28;20027;-70
2021/12/27 00:29:23;;;;;;;15.80;10.65;;;6.60;99.90;;;;;;4976345;28;20031;-70
2021/12/27 00:31:49;;;;;;;17.35;11.93;;;6.60;99.90;;;;;;4975751;28;20026;-70
2021/12/27 00:34:15;;;;;;;16.98;11.05;;;6.50;99.90;;;;;;4976403;28;20027;-70
2021/12/27 00:36:41;;;;;;;17.42;12.48;;;6.40;99.90;;;;;;4975877;28;20030;-70
2021/12/27 00:39:07;;;;;;;17.23;12.35;;;6.40;99.90;;;;;;4975730;28;20476;-70
2021/12/27 00:41:32;;;;;;;17.23;12.55;;;6.30;99.90;;;;;;4975713;28;20031;-71
2021/12/27 00:43:58;;;;;;;22.15;13.82;;;6.30;99.90;;;;;;4966675;28;20042;-70
2021/12/27 00:46:23;;;;;;;19.45;13.68;;;6.30;99.90;;;;;;4975333;28;20036;-70
2021/12/27 00:48:49;;;;;;;20.23;14.38;;;6.20;99.90;;;;;;4973925;28;20030;-70
2021/12/27 00:51:15;;;;;;;23.15;13.05;;;6.20;99.90;;;;;;4958380;28;20023;-70
2021/12/27 00:53:40;;;;;;;20.98;14.55;;;6.20;99.90;;;;;;4957792;28;20042;-69
2021/12/27 00:56:06;;;;;;;21.38;14.05;;;6.20;99.90;;;;;;4974300;28;20038;-70
2021/12/27 00:58:32;;;;;;;19.23;12.52;;;6.10;99.90;;;;;;4958063;28;20033;-70
2021/12/27 01:00:58;;;;;;;17.17;12.00;;;6.20;99.90;;;;;;4974598;28;20092;-70
2021/12/27 01:03:23;;;;;;;15.82;10.98;;;6.20;99.90;;;;;;4976121;28;20035;-70
2021/12/27 01:05:50;;;;;;;18.33;11.65;;;6.20;99.90;;;;;;4974517;28;20388;-70
2021/12/27 01:08:17;;;;;;;18.75;11.80;;;6.20;99.90;;;;;;4975478;28;20025;-70
2021/12/27 01:11:10;;;;;;;18.65;12.40;;;6.20;99.90;;;;;;4974964;28;20054;-70
2021/12/27 01:16:11;;;;;;;17.55;11.65;;;6.20;99.90;;;;;;4974244;28;20035;-69
2021/12/27 01:18:44;;;;;;;15.23;11.13;;;6.30;99.90;;;;;;4975221;28;20035;-70
2021/12/27 01:21:10;;;;;;;16.73;10.90;;;6.30;99.90;;;;;;4974614;28;20045;-70
2021/12/27 01:23:36;;;;;;;15.48;10.10;;;6.30;99.90;;;;;;4968255;28;20027;-70
2021/12/27 01:26:02;;;;;;;13.50;9.00;;;6.30;99.90;;;;;;4974163;28;20030;-70
2021/12/27 01:28:28;;;;;;;12.25;8.60;;;6.30;99.90;;;;;;4974910;28;20081;-70
2021/12/27 01:30:54;;;;;;;13.80;9.57;;;6.30;99.90;;;;;;4974007;28;20035;-70
2021/12/27 01:33:21;;;;;;;12.95;9.25;;;6.30;99.90;;;;;;4975048;28;20027;-69
2021/12/27 01:35:48;;;;;;;13.38;8.95;;;6.30;99.90;;;;;;4957173;28;20042;-69
2021/12/27 01:38:14;;;;;;;13.57;8.48;;;6.40;99.90;;;;;;4974658;28;20023;-69
2021/12/27 01:40:48;;;;;;;11.23;7.78;;;6.40;99.90;;;;;;4974587;28;20894;-71
2021/12/27 01:43:20;;;;;;;11.93;8.77;;;6.40;99.90;;;;;;4974662;28;20037;-71
2021/12/27 01:46:08;;;;;;;11.23;8.27;;;6.40;99.90;;;;;;4974188;28;20057;-71
2021/12/27 01:48:38;;;;;;;11.25;7.63;;;6.40;99.90;;;;;;4974638;28;20034;-71
2021/12/27 01:51:10;;;;;;;10.93;7.82;;;6.40;99.90;;;;;;4973721;28;20062;-71
2021/12/27 01:53:37;;;;;;;10.88;7.47;;;6.50;99.90;;;;;;4974474;28;20109;-71
2021/12/27 01:56:05;;;;;;;10.35;7.22;;;6.50;99.90;;;;;;4974009;28;20031;-69
2021/12/27 01:58:32;;;;;;;10.90;7.47;;;6.50;99.90;;;;;;4974084;28;20031;-70
2021/12/27 02:01:00;;;;;;;9.30;6.90;;;6.60;99.90;;;;;;4973035;28;20039;-71
2021/12/27 02:03:28;;;;;;;8.75;6.75;;;6.50;99.90;;;;;;4974366;28;20031;-71
2021/12/27 02:05:54;;;;;;;8.73;6.38;;;6.60;99.90;;;;;;4973563;28;20072;-71
2021/12/27 02:08:21;;;;;;;6.75;5.68;;;6.50;99.90;;;;;;4973371;28;20035;-70
2021/12/27 02:10:49;;;;;;;9.70;6.20;;;6.50;99.90;;;;;;4972025;28;20035;-70
2021/12/27 02:13:15;;;;;;;7.53;6.13;;;6.50;99.90;;;;;;4973820;28;20043;-71
2021/12/27 02:15:41;;;;;;;8.07;5.78;;;6.50;99.90;;;;;;4973753;28;20038;-71
2021/12/27 02:18:09;;;;;;;7.78;6.15;;;6.50;99.90;;;;;;4955955;28;20115;-71
2021/12/27 02:20:36;;;;;;;9.20;6.07;;;6.50;99.90;;;;;;4974022;28;20053;-71
2021/12/27 02:23:07;;;;;;;9.90;6.45;;;6.40;99.90;;;;;;4972863;28;20456;-71
2021/12/27 02:25:34;;;;;;;9.60;6.10;;;6.40;99.90;;;;;;4956581;28;20482;-70
2021/12/27 02:28:02;;;;;;;8.73;5.85;;;6.40;99.90;;;;;;4972993;28;20030;-70
2021/12/27 02:30:29;;;;;;;9.35;6.15;;;6.30;99.90;;;;;;4956413;28;20041;-69
2021/12/27 02:32:57;;;;;;;7.20;5.35;;;6.30;99.90;;;;;;4971873;28;20038;-69
2021/12/27 02:35:27;;;;;;;8.10;5.07;;;6.30;99.90;;;;;;4973711;28;20110;-69
2021/12/27 02:37:54;;;;;;;7.00;5.17;;;6.30;99.90;;;;;;4972961;28;20046;-69
2021/12/27 02:40:22;;;;;;;7.95;5.68;;;6.30;99.90;;;;;;4973626;28;20349;-69
2021/12/27 02:43:04;;;;;;;7.63;5.28;;;6.20;99.90;;;;;;4953064;28;20023;-70
2021/12/27 02:45:33;;;;;;;7.47;5.20;;;6.20;99.90;;;;;;4970687;28;20039;-69
2021/12/27 02:47:59;;;;;;;8.20;5.20;;;6.20;99.90;;;;;;4973173;28;20031;-69
2021/12/27 02:50:25;;;;;;;6.38;4.75;;;6.20;99.90;;;;;;4973956;28;20496;-69
2021/12/27 02:52:51;;;;;;;7.15;5.50;;;6.20;99.90;;;;;;4973130;28;20027;-70
2021/12/27 02:55:18;;;;;;;6.25;5.25;;;6.30;99.90;;;;;;4973852;28;20491;-68
2021/12/27 02:57:45;;;;;;;6.60;4.32;;;6.20;99.90;;;;;;4973817;28;20031;-68
2021/12/27 03:00:20;;;;;;;6.68;4.80;;;6.30;99.90;;;;;;4972626;28;20125;-68
2021/12/27 03:02:48;;;;;;;6.05;4.60;;;6.30;99.90;;;;;;4973694;28;20030;-70
2021/12/27 03:05:16;;;;;;;7.22;4.45;;;6.30;99.90;;;;;;4972174;28;20392;-70
2021/12/27 03:07:43;;;;;;;10.68;7.72;;;6.30;99.90;;;;;;4973590;28;20027;-70
2021/12/27 03:10:11;;;;;;;9.38;7.18;;;6.40;99.90;;;;;;4955218;28;20034;-70
2021/12/27 03:12:38;;;;;;;10.50;7.30;;;6.40;99.90;;;;;;4971282;28;20484;-70
2021/12/27 03:15:08;;;;;;;10.85;8.00;;;6.40;99.90;;;;;;4966582;28;20402;-70
2021/12/27 03:17:36;;;;;;;9.68;7.32;;;6.40;99.90;;;;;;4973068;28;20523;-70
2021/12/27 03:20:06;;;;;;;9.32;6.90;;;6.40;99.90;;;;;;4954874;28;20042;-70
2021/12/27 03:22:32;;;;;;;;;;;6.30;99.90;;;;;;4973749;28;20058;-69
2021/12/27 03:24:58;;;;;;;12.30;8.05;;;6.30;99.90;;;;;;4965521;28;19906;-70
2021/12/27 03:27:24;;;;;;;8.98;5.93;;;6.20;99.90;;;;;;4955278;28;20027;-70
2021/12/27 03:29:50;;;;;;;9.68;6.88;;;6.30;99.90;;;;;;4972197;28;20042;-71
2021/12/27 03:32:18;;;;;;;8.60;6.55;;;6.20;99.90;;;;;;4972396;28;20038;-70
2021/12/27 03:34:53;;;;;;;8.00;5.82;;;6.20;99.90;;;;;;4955375;28;20084;-70
2021/12/27 03:37:21;;;;;;;5.97;4.45;;;6.30;99.90;;;;;;4955900;28;20067;-70
2021/12/27 03:39:46;;;;;;;4.50;3.80;;;6.30;99.90;;;;;;4972824;28;20074;-70
2021/12/27 03:42:12;;;;;;;6.63;4.75;;;6.30;99.90;;;;;;4954856;28;20459;-70
2021/12/27 03:44:38;;;;;;;5.93;3.80;;;6.40;99.90;;;;;;4955401;28;20027;-70
2021/12/27 03:47:04;;;;;;;5.80;3.97;;;6.50;99.90;;;;;;4972134;28;20041;-71
2021/12/27 03:49:29;;;;;;;7.72;5.22;;;6.40;99.90;;;;;;4971834;28;20038;-71
2021/12/27 03:51:55;;;;;;;5.47;3.70;;;6.40;99.90;;;;;;4970798;28;20082;-71
2021/12/27 03:54:20;;;;;;;6.88;4.63;;;6.40;99.90;;;;;;4939738;28;20022;-71
2021/12/27 03:56:46;;;;;;;5.95;3.38;;;6.40;99.90;;;;;;4972764;28;20455;-70
2021/12/27 03:59:37;;;;;;;5.05;3.78;;;6.40;99.90;;;;;;4954694;28;20617;-71
2021/12/27 04:02:04;;;;;;;5.75;4.65;;;6.40;99.90;;;;;;4972125;28;20077;-71
2021/12/27 04:04:29;;;;;;;9.30;5.30;;;6.40;99.90;;;;;;4955199;28;20033;-71
2021/12/27 04:06:55;;;;;;;8.80;6.45;;;6.40;99.90;;;;;;4971716;28;20386;-70
2021/12/27 04:09:21;;;;;;;9.70;6.32;;;6.60;99.90;;;;;;4972479;28;20085;-70
2021/12/27 04:11:47;;;;;;;9.25;6.85;;;6.50;99.90;;;;;;4955119;28;20114;-70
2021/12/27 04:14:12;;;;;;;9.63;6.38;;;6.50;99.90;;;;;;4971898;28;20078;-70
2021/12/27 04:16:38;;;;;;;10.52;8.13;;;6.40;99.90;;;;;;4966797;28;20039;-70
2021/12/27 04:19:04;;;;;;;9.73;7.82;;;6.30;99.90;;;;;;4965388;28;20375;-70
2021/12/27 04:21:29;;;;;;;12.98;8.32;;;6.30;99.90;;;;;;4966319;28;20033;-70
2021/12/27 04:23:55;;;;;;;11.80;8.15;;;6.20;99.90;;;;;;4969636;28;20027;-70
2021/12/27 04:26:22;;;;;;;11.07;8.40;;;6.20;99.90;;;;;;4969801;28;20085;-70
2021/12/27 04:28:49;;;;;;;12.20;9.05;;;6.10;99.90;;;;;;4967136;28;20038;-70
2021/12/27 04:31:14;;;;;;;11.02;7.80;;;6.10;99.90;;;;;;4968237;28;20054;-70
2021/12/27 04:33:41;;;;;;;11.77;7.90;;;6.10;99.90;;;;;;4968676;28;20062;-69
2021/12/27 04:36:07;;;;;;;10.80;8.13;;;6.10;99.90;;;;;;4954040;28;20042;-69
2021/12/27 04:38:33;;;;;;;12.23;8.20;;;6.00;99.90;;;;;;4966720;28;20027;-70
2021/12/27 04:41:00;;;;;;;13.13;8.40;;;6.00;99.90;;;;;;4967014;28;20495;-70
2021/12/27 04:43:25;;;;;;;11.35;8.23;;;6.00;99.90;;;;;;4965855;28;20035;-70
2021/12/27 04:45:53;;;;;;;15.45;9.32;;;6.00;99.90;;;;;;4975551;28;20049;-70
2021/12/27 04:48:21;;;;;;;11.40;8.55;;;6.00;99.90;;;;;;4958983;28;20161;-70
2021/12/27 04:50:47;;;;;;;9.02;6.70;;;6.00;99.90;;;;;;4975909;28;20372;-70
2021/12/27 04:53:13;;;;;;;13.18;8.50;;;6.20;99.90;;;;;;4972179;28;20023;-70
2021/12/27 04:55:39;;;;;;;12.63;7.82;;;6.20;99.90;;;;;;4970800;28;20031;-70
2021/12/27 04:58:10;;;;;;;10.07;7.22;;;6.20;99.90;;;;;;4962128;28;20029;-70
2021/12/27 05:00:36;;;;;;;;;;;6.20;99.90;;;;;;4971537;28;20049;-70
2021/12/27 05:03:02;;;;;;;10.57;7.43;;;6.30;99.90;;;;;;4953541;28;19921;-70
2021/12/27 05:05:30;;;;;;;11.80;8.15;;;6.20;99.90;;;;;;4971301;28;20018;-70
2021/12/27 05:07:57;;;;;;;13.95;8.77;;;6.20;99.90;;;;;;4971003;28;20022;-69
2021/12/27 05:10:25;;;;;;;11.80;7.70;;;6.20;99.90;;;;;;4971357;28;20046;-70
2021/12/27 05:12:50;;;;;;;8.25;5.65;;;6.10;99.90;;;;;;4959798;28;20103;-70
2021/12/27 05:15:16;;;;;;;7.40;5.70;;;6.10;99.90;;;;;;4964600;28;20409;-70
2021/12/27 05:17:42;;;;;;;10.32;6.35;;;6.10;99.90;;;;;;4970830;28;20019;-70
2021/12/27 05:20:09;;;;;;;7.45;5.32;;;6.20;99.90;;;;;;4968612;28;20423;-70
2021/12/27 05:22:35;;;;;;;8.50;6.32;;;6.20;99.90;;;;;;4975626;28;20023;-70
2021/12/27 05:25:02;;;;;;;10.00;7.22;;;6.30;99.90;;;;;;4974557;28;20427;-70
2021/12/27 05:27:27;;;;;;;9.82;7.25;;;6.20;99.90;;;;;;4958246;28;20027;-70
2021/12/27 05:29:53;;;;;;;10.30;6.95;;;6.10;99.90;;;;;;4974897;28;20372;-70
2021/12/27 05:32:19;;;;;;;12.05;7.90;;;6.10;99.90;;;;;;4974778;28;20388;-70
2021/12/27 05:34:44;;;;;;;17.13;8.65;;;6.10;99.90;;;;;;4965266;28;20030;-70
2021/12/27 05:37:10;;;;;;;12.07;7.95;;;6.10;99.90;;;;;;4967369;28;20026;-70
2021/12/27 05:39:36;;;;;;;11.02;7.68;;;6.20;99.90;;;;;;4967550;28;20681;-70
2021/12/27 05:42:02;;;;;;;13.05;8.05;;;6.20;99.90;;;;;;4969324;28;20058;-70
2021/12/27 05:44:28;;;;;;;14.73;8.23;;;6.20;99.90;;;;;;4962169;28;20035;-70
2021/12/27 05:46:54;;;;;;;16.50;8.90;;;6.20;99.90;;;;;;4965168;28;20019;-70
2021/12/27 05:49:21;;;;;;;17.40;8.50;;;6.10;99.90;;;;;;4970123;28;20057;-70
2021/12/27 05:51:47;;;;;;;17.60;9.15;;;6.10;99.90;;;;;;4967547;28;20039;-70
2021/12/27 05:54:13;;;;;;;17.70;9.35;;;6.10;99.90;;;;;;4952123;28;20020;-70
2021/12/27 05:56:40;;;;;;;19.10;8.63;;;6.00;99.90;;;;;;4966571;28;20026;-70
2021/12/27 05:59:06;;;;;;;16.58;8.88;;;6.00;99.90;;;;;;4968584;28;20034;-70
2021/12/27 06:01:32;;;;;;;15.52;8.10;;;6.00;99.90;;;;;;4964570;28;20023;-70
2021/12/27 06:03:59;;;;;;;15.27;8.05;;;6.00;99.90;;;;;;4967354;28;20023;-70
2021/12/27 06:06:26;;;;;;;13.27;8.52;;;6.00;99.90;;;;;;4967807;28;20110;-70
2021/12/27 06:08:52;;;;;;;13.20;8.52;;;5.90;99.90;;;;;;4965150;28;20020;-70
2021/12/27 06:11:17;;;;;;;13.80;8.50;;;5.90;99.90;;;;;;4965944;28;20038;-70
2021/12/27 06:13:43;;;;;;;10.20;7.43;;;5.90;99.90;;;;;;4963941;28;20389;-70
2021/12/27 06:16:10;;;;;;;12.50;7.22;;;5.80;99.90;;;;;;4971804;28;20077;-70
2021/12/27 06:18:35;;;;;;;12.25;7.75;;;5.80;99.90;;;;;;4972620;28;20023;-70
2021/12/27 06:21:02;;;;;;;11.43;7.43;;;5.70;99.90;;;;;;4971733;28;20439;-70
2021/12/27 06:23:27;;;;;;;13.05;7.50;;;5.70;99.90;;;;;;4972330;28;20042;-70
2021/12/27 06:25:53;;;;;;;14.18;8.07;;;5.60;99.90;;;;;;4954104;28;20019;-70
2021/12/27 06:28:19;;;;;;;12.32;8.00;;;5.60;99.90;;;;;;4972930;28;20058;-69
2021/12/27 06:30:44;;;;;;;11.00;7.35;;;5.50;99.90;;;;;;4973548;28;20081;-69
2021/12/27 06:33:10;;;;;;;13.15;8.10;;;5.40;99.90;;;;;;4972490;28;20118;-68
2021/12/27 06:35:37;;;;;;;11.35;7.63;;;5.40;99.90;;;;;;4973662;28;20027;-70
2021/12/27 06:38:03;;;;;;;11.07;7.57;;;5.30;99.90;;;;;;4972423;28;20037;-70
2021/12/27 06:40:30;;;;;;;10.25;7.22;;;5.20;99.90;;;;;;4955987;28;20042;-70
2021/12/27 06:42:57;;;;;;;11.82;7.38;;;5.10;99.90;;;;;;4972107;28;20038;-70
2021/12/27 06:45:24;;;;;;;11.65;7.82;;;5.00;99.90;;;;;;4972938;28;20039;-70
2021/12/27 06:47:50;;;;;;;11.68;7.68;;;4.90;99.90;;;;;;4973920;28;20501;-70
2021/12/27 06:50:16;;;;;;;10.50;6.97;;;4.80;99.90;;;;;;4973692;28;20530;-70
2021/12/27 06:52:43;;;;;;;10.52;6.30;;;4.70;99.90;;;;;;4973769;28;20031;-70
2021/12/27 06:55:10;;;;;;;8.05;6.25;;;4.60;99.90;;;;;;4973534;28;20475;-70
2021/12/27 06:57:36;;;;;;;8.07;6.10;;;4.50;99.90;;;;;;4956016;28;20034;-70
2021/12/27 07:00:06;;;;;;;13.60;7.35;;;4.50;99.90;;;;;;4972983;28;20031;-70
2021/12/27 07:02:31;;;;;;;8.90;6.13;;;4.50;99.90;;;;;;4973598;28;20031;-70
2021/12/27 07:04:57;;;;;;;8.05;5.75;;;4.40;99.90;;;;;;4972656;28;20042;-70
2021/12/27 07:07:24;;;;;;;12.73;7.03;;;4.40;99.90;;;;;;4972120;28;20526;-70
2021/12/27 07:09:49;;;;;;;9.23;6.15;;;4.40;99.90;;;;;;4973571;28;20058;-70
2021/12/27 07:12:15;;;;;;;9.63;6.40;;;4.30;99.90;;;;;;4955318;28;20459;-71
2021/12/27 07:14:42;;;;;;;7.75;5.43;;;4.30;99.90;;;;;;4967454;28;20062;-70
2021/12/27 07:17:08;;;;;;;11.38;5.97;;;4.30;99.90;;;;;;4972514;28;20070;-71
2021/12/27 07:19:34;;;;;;;10.50;6.03;;;4.30;99.90;;;;;;4988715;28;20027;-70
2021/12/27 07:22:00;;;;;;;8.18;5.70;;;4.30;99.90;;;;;;4973272;28;20023;-68
2021/12/27 07:24:25;;;;;;;8.73;5.53;;;4.20;99.90;;;;;;4972526;28;20033;-70
2021/12/27 07:26:52;;;;;;;7.78;5.45;;;4.20;99.90;;;;;;4972917;28;20046;-69
2021/12/27 07:29:19;;;;;;;8.30;6.53;;;4.20;99.90;;;;;;4973389;28;20031;-69
2021/12/27 07:31:45;;;;;;;7.72;5.97;;;4.20;99.90;;;;;;4973218;28;20102;-67
2021/12/27 07:34:12;;;;;;;11.85;6.38;;;4.20;99.90;;;;;;4972685;28;20027;-69
2021/12/27 07:36:38;;;;;;;8.90;6.07;;;4.20;99.90;;;;;;4973209;28;20487;-72
2021/12/27 07:39:04;;;;;;;8.50;6.25;;;4.20;99.90;;;;;;4972323;28;20452;-72
2021/12/27 07:41:30;;;;;;;11.07;7.05;;;4.20;99.90;;;;;;4973103;28;20035;-72
2021/12/27 07:43:56;;;;;;;10.60;7.13;;;4.30;99.90;;;;;;4972323;28;20082;-72
2021/12/27 07:46:22;;;;;;;10.45;7.00;;;4.40;99.90;;;;;;4973141;28;20038;-71
2021/12/27 07:48:48;;;;;;;9.35;6.78;;;4.40;99.90;;;;;;4973013;28;20027;-69
2021/12/27 07:51:14;;;;;;;8.27;6.68;;;4.50;99.90;;;;;;4972578;28;20054;-71
2021/12/27 07:53:39;;;;;;;12.38;7.68;;;4.60;99.90;;;;;;4972927;28;20062;-71
2021/12/27 07:56:08;;;;;;;9.48;6.57;;;4.60;99.90;;;;;;4972228;28;20030;-71
2021/12/27 07:58:34;;;;;;;12.23;6.45;;;4.70;99.90;;;;;;4976260;28;20034;-69
2021/12/27 08:00:59;;;;;;;9.30;6.53;;;4.80;99.90;;;;;;4976123;28;20069;-72
2021/12/27 08:03:30;;;;;;;8.27;6.47;;;4.80;99.90;;;;;;4977097;28;20058;-68
2021/12/27 08:05:56;;;;;;;9.25;6.35;;;4.90;99.90;;;;;;4976628;28;20034;-68
2021/12/27 08:08:22;;;;;;;10.50;6.38;;;5.00;99.90;;;;;;4976466;28;20023;-69
2021/12/27 08:10:48;;;;;;;7.28;5.78;;;4.90;99.90;;;;;;4976050;28;20058;-68
2021/12/27 08:13:14;;;;;;;9.18;7.63;;;4.90;99.90;;;;;;4973553;28;20054;-70
2021/12/27 08:15:39;;;;;;;9.57;6.72;;;5.00;99.90;;;;;;4975982;28;20054;-68
2021/12/27 08:18:05;;;;;;;10.63;7.07;;;4.90;99.90;;;;;;4975906;28;20106;-67
2021/12/27 08:20:31;;;;;;;10.57;7.10;;;4.90;99.90;;;;;;4976212;28;20461;-68
2021/12/27 08:22:56;;;;;;;11.57;7.45;;;4.90;99.90;;;;;;4975489;28;20069;-67
2021/12/27 08:25:22;;;;;;;9.50;6.50;;;4.90;99.90;;;;;;4976080;28;20027;-67
2021/12/27 08:27:49;;;;;;;10.45;7.35;;;4.80;99.90;;;;;;4976017;28;20059;-68
2021/12/27 08:30:15;;;;;;;9.60;6.78;;;4.80;99.90;;;;;;4975544;28;20551;-68
2021/12/27 08:32:45;;;;;;;12.43;7.70;;;4.90;99.90;;;;;;4975989;28;20030;-69
2021/12/27 08:35:11;;;;;;;11.88;7.78;;;4.90;99.90;;;;;;4975436;28;20038;-69
2021/12/27 08:37:38;;;;;;;9.52;6.97;;;4.90;99.90;;;;;;4975861;28;20090;-68
2021/12/27 08:40:06;;;;;;;10.13;7.03;;;4.90;99.90;;;;;;4974807;28;20042;-69
2021/12/27 08:42:32;;;;;;;9.25;6.72;;;4.90;99.90;;;;;;4975589;28;20035;-69
2021/12/27 08:44:58;;;;;;;7.90;5.75;;;5.00;99.90;;;;;;4974929;28;20566;-69
2021/12/27 08:47:23;;;;;;;6.53;4.50;;;5.20;99.90;;;;;;4975858;28;20109;-69
2021/12/27 08:49:49;;;;;;;6.43;5.25;;;5.30;99.90;;;;;;4975591;28;20053;-69
2021/12/27 08:52:16;;;;;;;4.82;4.07;;;5.40;99.90;;;;;;4974841;28;20384;-72
2021/12/27 08:54:41;;;;;;;7.63;4.85;;;5.60;99.90;;;;;;4975334;28;20052;-69
2021/12/27 08:57:09;;;;;;;5.38;4.32;;;5.80;99.90;;;;;;4975155;28;20364;-70
2021/12/27 08:59:38;;;;;;;5.57;4.55;;;6.00;99.90;;;;;;4975390;28;20464;-70
2021/12/27 09:02:05;;;;;;;5.88;5.13;;;6.10;99.90;;;;;;4976076;28;20079;-70
2021/12/27 09:04:31;;;;;;;8.60;6.18;;;6.30;99.90;;;;;;4976285;28;20042;-70
2021/12/27 09:06:58;;;;;;;7.97;5.68;;;6.40;99.90;;;;;;4975705;28;20102;-70
2021/12/27 09:09:23;;;;;;;7.80;5.50;;;6.60;99.90;;;;;;4974322;28;20080;-71
2021/12/27 09:11:49;;;;;;;7.30;6.13;;;6.60;99.90;;;;;;4975913;28;20471;-73
2021/12/27 09:14:15;;;;;;;9.82;6.43;;;6.60;99.90;;;;;;4974645;28;20472;-79
2021/12/27 09:16:41;;;;;;;7.75;5.63;;;6.60;99.90;;;;;;4975028;28;20027;-71
2021/12/27 09:19:06;;;;;;;8.50;6.30;;;6.60;99.90;;;;;;4974339;28;20039;-74
2021/12/27 09:21:32;;;;;;;7.97;6.03;;;6.60;99.90;;;;;;4974754;28;20034;-70
2021/12/27 09:23:58;;;;;;;8.70;5.65;;;6.60;99.90;;;;;;4974340;28;20034;-69
2021/12/27 09:26:24;;;;;;;7.68;6.38;;;6.60;99.90;;;;;;4974763;28;20413;-68
2021/12/27 09:28:50;;;;;;;9.98;6.10;;;6.60;99.90;;;;;;4973370;28;20073;-70
2021/12/27 09:31:15;;;;;;;5.35;4.30;;;6.60;99.90;;;;;;4974381;28;20085;-74
2021/12/27 09:33:41;;;;;;;5.97;4.15;;;6.70;99.90;;;;;;4974845;28;20031;-69
2021/12/27 09:36:07;;;;;;;6.20;3.92;;;6.70;99.90;;;;;;4974129;28;20498;-69
2021/12/27 09:38:33;;;;;;;3.90;3.35;;;6.80;99.90;;;;;;4974902;28;20031;-70
2021/12/27 09:40:59;;;;;;;3.58;2.88;;;6.90;99.90;;;;;;4974055;28;20046;-69
2021/12/27 09:43:26;;;;;;;4.35;3.20;;;6.90;99.90;;;;;;4974195;28;20125;-69
2021/12/27 09:45:51;;;;;;;3.88;3.15;;;7.00;99.90;;;;;;4972688;28;20041;-68
2021/12/27 09:48:17;;;;;;;3.17;2.80;;;7.00;99.90;;;;;;4973984;28;20496;-68
2021/12/27 09:50:52;;;;;;;3.25;2.67;;;7.10;99.90;;;;;;4974853;28;20432;-68
2021/12/27 09:53:17;;;;;;;3.50;2.60;;;7.20;99.90;;;;;;4974052;28;20026;-68
2021/12/27 09:55:43;;;;;;;3.17;2.45;;;7.20;99.90;;;;;;4974547;28;20448;-68
2021/12/27 09:58:09;;;;;;;3.53;2.75;;;7.30;99.90;;;;;;4973413;28;20462;-69
2021/12/27 10:00:36;;;;;;;3.92;2.67;;;7.30;99.90;;;;;;4974217;28;20134;-69
2021/12/27 10:03:02;;;;;;;3.25;2.70;;;7.40;99.90;;;;;;4973828;28;20030;-69
2021/12/27 10:05:29;;;;;;;3.53;2.78;;;7.40;99.90;;;;;;4974287;28;20022;-69
2021/12/27 10:07:56;;;;;;;3.88;2.70;;;7.50;99.90;;;;;;4974232;28;20026;-69
2021/12/27 10:10:22;;;;;;;3.05;2.65;;;7.50;99.90;;;;;;4974249;28;20037;-68
2021/12/27 10:12:48;;;;;;;4.43;3.08;;;7.40;99.90;;;;;;4974153;28;20054;-69
2021/12/27 10:15:18;;;;;;;5.32;3.05;;;7.40;99.90;;;;;;4973184;28;20031;-69
2021/12/27 10:17:44;;;;;;;4.78;3.25;;;7.40;99.90;;;;;;4974086;28;20105;-69
2021/12/27 10:20:10;;;;;;;4.80;3.67;;;7.50;99.90;;;;;;4972415;28;20038;-68
2021/12/27 10:22:41;;;;;;;5.80;3.83;;;7.50;99.90;;;;;;4973557;28;20481;-69
2021/12/27 10:25:17;;;;;;;5.15;3.92;;;7.50;99.90;;;;;;4972771;28;20110;-69
2021/12/27 10:27:44;;;;;;;7.10;4.30;;;7.60;99.90;;;;;;4973454;28;20030;-70
2021/12/27 10:30:18;;;;;;;4.25;3.65;;;7.60;99.90;;;;;;4972472;28;20429;-69
2021/12/27 10:32:59;;;;;;;5.97;4.00;;;7.70;99.90;;;;;;4973473;28;20030;-70
2021/12/27 10:35:36;;;;;;;7.50;3.97;;;7.80;99.90;;;;;;4973732;28;20031;-70
2021/12/27 10:38:19;;;;;;;5.15;4.10;;;7.90;99.90;;;;;;4955961;28;20031;-70
2021/12/27 10:40:56;;;;;;;4.95;3.80;;;8.00;99.90;;;;;;4973267;28;20209;-69
2021/12/27 10:43:42;;;;;;;6.47;4.20;;;8.10;99.90;;;;;;4972611;28;20029;-70
2021/12/27 10:46:16;;;;;;;4.82;3.70;;;8.20;99.90;;;;;;4972946;28;20049;-71
2021/12/27 10:48:47;;;;;;;4.35;3.53;;;8.20;99.90;;;;;;4973299;28;20027;-71
2021/12/27 10:51:13;;;;;;;5.82;3.88;;;8.20;99.90;;;;;;4972959;28;20022;-69
2021/12/27 10:53:57;;;;;;;3.90;3.50;;;8.30;99.90;;;;;;4973654;28;20285;-70
2021/12/27 10:56:25;;;;;;;5.10;4.18;;;8.30;99.90;;;;;;4972867;28;20029;-70
2021/12/27 10:58:55;;;;;;;4.03;3.45;;;8.40;99.90;;;;;;4973205;28;20169;-70
2021/12/27 11:01:23;;;;;;;3.65;3.30;;;8.40;99.90;;;;;;4972729;28;20113;-69
2021/12/27 11:03:51;;;;;;;4.65;3.35;;;8.50;99.90;;;;;;4973465;28;20026;-69
2021/12/27 11:06:22;;;;;;;4.30;3.22;;;8.60;99.90;;;;;;4972961;28;20029;-69
2021/12/27 11:08:51;;;;;;;6.60;3.60;;;8.70;99.90;;;;;;4973413;28;20102;-70
2021/12/27 11:11:18;;;;;;;3.90;3.20;;;8.80;99.90;;;;;;4971978;28;20038;-69
2021/12/27 11:13:45;;;;;;;5.75;3.30;;;8.80;99.90;;;;;;4972447;28;20098;-69
2021/12/27 11:16:10;;;;;;;4.93;3.53;;;8.90;99.90;;;;;;4972946;28;20600;-69
2021/12/27 11:18:37;;;;;;;4.43;3.50;;;8.90;99.90;;;;;;4973495;28;20056;-69
2021/12/27 11:21:04;;;;;;;4.65;3.85;;;9.00;99.90;;;;;;4972384;28;20476;-69
2021/12/27 11:23:31;;;;;;;7.80;3.90;;;9.00;99.90;;;;;;4973466;28;20023;-69
2021/12/27 11:26:12;;;;;;;5.15;3.97;;;9.10;99.90;;;;;;4973342;28;20121;-69
2021/12/27 11:28:39;;;;;;;3.75;3.35;;;9.10;99.90;;;;;;4973354;28;20029;-70
2021/12/27 11:31:26;;;;;;;6.28;4.50;;;9.00;99.90;;;;;;4972823;28;20034;-69
2021/12/27 11:34:02;;;;;;;4.80;3.60;;;9.00;99.90;;;;;;4977494;28;20037;-69
2021/12/27 11:36:31;;;;;;;5.75;3.90;;;9.00;99.90;;;;;;4977543;28;20026;-70
2021/12/27 11:38:58;;;;;;;6.18;4.13;;;9.00;99.90;;;;;;4977405;28;20443;-70
2021/12/27 11:41:24;;;;;;;4.50;3.45;;;9.00;99.90;;;;;;4977258;28;20058;-70
2021/12/27 11:44:04;;;;;;;5.07;3.55;;;9.00;99.90;;;;;;4976853;28;20039;-70
2021/12/27 11:46:51;;;;;;;5.38;4.20;;;9.10;99.90;;;;;;4977363;28;20476;-70
2021/12/27 11:49:35;;;;;;;4.72;3.95;;;9.10;99.90;;;;;;4966075;28;20039;-69
2021/12/27 11:52:19;;;;;;;6.50;3.92;;;9.20;99.90;;;;;;4976470;28;20089;-69
2021/12/27 11:55:01;;;;;;;4.80;3.40;;;9.30;99.90;;;;;;4976881;28;20022;-69
2021/12/27 11:57:53;;;;;;;6.25;4.00;;;9.40;99.90;;;;;;4976961;28;20031;-69
2021/12/27 12:00:23;;;;;;;4.57;3.20;;;9.50;99.90;;;;;;4973444;28;20244;-69
2021/12/27 12:02:51;;;;;;;5.30;3.88;;;9.50;99.90;;;;;;4976710;28;20110;-69
2021/12/27 12:05:39;;;;;;;5.45;4.00;;;9.60;99.90;;;;;;4976015;28;20620;-69
2021/12/27 12:08:07;;;;;;;5.43;3.85;;;9.60;99.90;;;;;;4976115;28;20026;-68
2021/12/27 12:10:33;;;;;;;5.35;3.85;;;9.60;99.90;;;;;;4976830;28;20037;-69
2021/12/27 12:13:37;;;;;;;4.00;3.30;;;9.60;99.90;;;;;;4976226;28;20141;-69
2021/12/27 12:16:15;;;;;;;5.18;3.78;;;9.60;99.90;;;;;;4958064;28;20047;-68
2021/12/27 12:18:44;;;;;;;4.78;3.50;;;9.50;99.90;;;;;;4976620;28;20037;-69
2021/12/27 12:21:31;;;;;;;5.13;4.00;;;9.50;99.90;;;;;;4975831;28;20043;-69
2021/12/27 12:24:02;;;;;;;4.35;3.88;;;9.50;99.90;;;;;;4969776;28;20037;-68
2021/12/27 12:26:28;;;;;;;4.70;3.78;;;9.40;99.90;;;;;;4976213;28;20122;-69
2021/12/27 12:28:59;;;;;;;5.30;3.63;;;9.40;99.90;;;;;;4976174;28;20034;-69
2021/12/27 12:31:31;;;;;;;4.70;3.63;;;9.40;99.90;;;;;;4975782;28;20034;-69
2021/12/27 12:34:19;;;;;;;5.00;3.92;;;9.40;99.90;;;;;;4976299;28;20034;-71
2021/12/27 12:36:56;;;;;;;6.30;4.00;;;9.40;99.90;;;;;;4975933;28;20121;-69
2021/12/27 12:39:24;;;;;;;5.78;3.30;;;9.30;99.90;;;;;;4975312;28;20412;-70
2021/12/27 12:41:51;;;;;;;5.30;3.42;;;9.30;99.90;;;;;;4976068;28;20409;-70
2021/12/27 12:44:18;;;;;;;5.00;3.58;;;9.30;99.90;;;;;;4974902;28;20082;-70
2021/12/27 12:46:48;;;;;;;6.68;3.63;;;9.30;99.90;;;;;;4975589;28;20134;-71
2021/12/27 12:49:20;;;;;;;4.38;3.25;;;9.40;99.90;;;;;;4975296;28;20023;-70
2021/12/27 12:51:53;;;;;;;5.32;3.63;;;9.40;99.90;;;;;;4975772;28;20054;-69
2021/12/27 12:54:24;;;;;;;6.13;4.40;;;9.40;99.90;;;;;;4975326;28;20027;-70
2021/12/27 12:56:55;;;;;;;4.22;3.78;;;9.50;99.90;;;;;;4975913;28;20114;-70
2021/12/27 12:59:25;;;;;;;4.75;3.85;;;9.60;99.90;;;;;;4975130;28;20191;-70